createdAt,value
2022-08-11T00:01:28.884Z,4.53
2022-08-11T00:04:01.261Z,5.57
2022-08-11T00:06:36.378Z,7.03
2022-08-11T00:09:11.594Z,7.27
2022-08-11T00:11:48.075Z,5.30
2022-08-11T00:14:36.746Z,5.40
2022-08-11T00:17:16.207Z,4.47
2022-08-11T00:20:13.923Z,4.97
2022-08-11T00:22:41.706Z,7.27
2022-08-11T00:25:15.467Z,5.33
2022-08-11T00:27:43.639Z,4.60
2022-08-11T00:30:13.437Z,4.17
2022-08-11T00:32:54.714Z,4.43
2022-08-11T00:35:53.962Z,8.57
2022-08-11T00:38:18.772Z,5.00
2022-08-11T00:41:11.367Z,5.13
2022-08-11T00:44:12.225Z,5.43
2022-08-11T00:47:15.509Z,5.00
2022-08-11T00:50:32.253Z,5.57
2022-08-11T00:53:26.170Z,4.70
2022-08-11T00:56:40.822Z,4.43
2022-08-11T00:59:34.126Z,5.07
2022-08-11T01:02:40.209Z,4.33
2022-08-11T01:05:43.018Z,5.13
2022-08-11T01:08:40.946Z,5.67
2022-08-11T01:11:55.695Z,8.40
2022-08-11T01:15:00.908Z,5.83
2022-08-11T01:18:17.353Z,8.23
2022-08-11T01:21:54.165Z,6.43
2022-08-11T01:25:06.493Z,6.87
2022-08-11T01:27:54.397Z,9.73
2022-08-11T01:31:37.109Z,7.10
2022-08-11T01:34:27.817Z,5.97
2022-08-11T01:37:33.008Z,9.23
2022-08-11T01:40:44.873Z,7.10
2022-08-11T01:44:22.438Z,7.83
2022-08-11T01:47:54.451Z,6.80
2022-08-11T01:50:42.625Z,5.30
2022-08-11T01:54:09.310Z,7.43
2022-08-11T01:57:00.216Z,6.40
2022-08-11T01:59:39.400Z,7.10
2022-08-11T02:02:49.990Z,7.57
2022-08-11T02:06:35.169Z,8.10
2022-08-11T02:10:22.161Z,6.50
2022-08-11T02:13:12.228Z,6.50
2022-08-11T02:15:56.750Z,10.17
2022-08-11T02:19:19.489Z,7.33
2022-08-11T02:22:21.493Z,7.53
2022-08-11T02:25:01.921Z,6.10
2022-08-11T02:27:45.451Z,6.53
2022-08-11T02:30:17.339Z,7.53
2022-08-11T02:33:25.363Z,5.93
2022-08-11T02:36:11.755Z,9.80
2022-08-11T02:38:55.967Z,5.40
2022-08-11T02:42:08.592Z,5.80
2022-08-11T02:45:12.723Z,4.83
2022-08-11T02:48:19.807Z,4.67
2022-08-11T02:51:23.564Z,5.57
2022-08-11T02:54:50.222Z,6.07
2022-08-11T02:57:30.780Z,6.53
2022-08-11T03:00:13.265Z,5.83
2022-08-11T03:02:55.615Z,9.93
2022-08-11T03:06:11.584Z,8.77
2022-08-11T03:08:56.582Z,8.10
2022-08-11T03:12:10.185Z,6.93
2022-08-11T03:15:14.254Z,6.67
2022-08-11T03:18:25.084Z,5.03
2022-08-11T03:21:16.050Z,6.00
2022-08-11T03:24:46.442Z,5.73
2022-08-11T03:27:44.584Z,5.00
2022-08-11T03:30:22.146Z,9.37
2022-08-11T03:33:32.616Z,5.80
2022-08-11T03:36:14.531Z,7.40
2022-08-11T03:39:01.067Z,4.63
2022-08-11T03:42:01.301Z,4.93
2022-08-11T03:45:17.577Z,7.77
2022-08-11T03:48:29.519Z,5.60
2022-08-11T03:51:23.443Z,7.40
2022-08-11T03:54:16.541Z,7.20
2022-08-11T03:57:39.241Z,9.00
2022-08-11T04:00:50.040Z,8.03
2022-08-11T04:03:52.848Z,7.93
2022-08-11T04:06:40.852Z,7.23
2022-08-11T04:09:49.832Z,9.17
2022-08-11T04:13:10.069Z,10.33
2022-08-11T04:16:15.648Z,10.27
2022-08-11T04:19:46.358Z,6.80
2022-08-11T04:22:27.875Z,4.83
2022-08-11T04:25:14.923Z,5.47
2022-08-11T04:28:29.000Z,5.23
2022-08-11T04:31:51.552Z,5.87
2022-08-11T04:34:44.626Z,6.43
2022-08-11T04:37:56.410Z,9.27
2022-08-11T04:40:35.316Z,8.50
2022-08-11T04:44:02.736Z,10.63
2022-08-11T04:48:03.973Z,9.90
2022-08-11T04:51:17.076Z,9.17
2022-08-11T04:54:19.339Z,15.53
2022-08-11T04:57:10.327Z,12.90
2022-08-11T05:00:36.437Z,12.63
2022-08-11T05:03:35.266Z,12.47
2022-08-11T05:06:43.916Z,12.00
2022-08-11T05:09:46.225Z,13.63
2022-08-11T05:12:40.749Z,12.20
2022-08-11T05:15:54.192Z,13.53
2022-08-11T05:18:44.322Z,9.33
2022-08-11T05:21:44.442Z,10.07
2022-08-11T05:24:41.676Z,19.03
2022-08-11T05:27:32.908Z,13.70
2022-08-11T05:30:25.913Z,12.57
2022-08-11T05:33:32.132Z,9.60
2022-08-11T05:36:25.068Z,10.70
2022-08-11T05:39:36.585Z,9.53
2022-08-11T05:42:30.376Z,9.53
2022-08-11T05:45:57.272Z,11.13
2022-08-11T05:48:41.086Z,9.33
2022-08-11T05:51:30.433Z,8.77
2022-08-11T05:54:28.314Z,9.20
2022-08-11T05:57:02.659Z,9.33
2022-08-11T05:59:31.727Z,11.13
2022-08-11T06:02:07.152Z,11.00
2022-08-11T06:04:35.234Z,8.93
2022-08-11T06:07:09.874Z,8.53
2022-08-11T06:09:51.342Z,33.00
2022-08-11T06:12:24.734Z,11.47
2022-08-11T06:15:01.768Z,8.60
2022-08-11T06:17:38.394Z,9.33
2022-08-11T06:20:12.334Z,9.47
2022-08-11T06:22:52.373Z,8.30
2022-08-11T06:25:21.192Z,7.93
2022-08-11T06:27:59.002Z,8.30
2022-08-11T06:30:46.567Z,6.97
2022-08-11T06:33:31.223Z,6.90
2022-08-11T06:36:16.558Z,9.10
2022-08-11T06:39:14.244Z,7.27
2022-08-11T06:42:06.950Z,7.77
2022-08-11T06:44:48.546Z,7.03
2022-08-11T06:47:18.198Z,8.63
2022-08-11T06:50:06.298Z,7.30
2022-08-11T06:52:37.502Z,6.03
2022-08-11T06:55:57.333Z,6.87
2022-08-11T06:58:50.943Z,6.30
2022-08-11T07:01:46.348Z,7.97
2022-08-11T07:04:35.650Z,5.37
2022-08-11T07:08:35.228Z,5.47
2022-08-11T07:11:39.478Z,6.00
2022-08-11T07:14:26.955Z,3.90
2022-08-11T07:16:55.051Z,6.50
2022-08-11T07:19:46.914Z,5.23
2022-08-11T07:22:34.228Z,5.07
2022-08-11T07:25:34.909Z,7.57
2022-08-11T07:28:31.396Z,5.10
2022-08-11T07:31:07.212Z,7.97
2022-08-11T07:34:06.917Z,5.07
2022-08-11T07:36:48.164Z,8.40
2022-08-11T07:39:44.281Z,12.47
2022-08-11T07:42:15.585Z,6.70
2022-08-11T07:45:05.139Z,5.47
2022-08-11T07:47:53.394Z,7.05
2022-08-11T07:50:39.521Z,4.90
2022-08-11T07:53:07.687Z,6.30
2022-08-11T07:55:50.253Z,7.90
2022-08-11T07:58:45.509Z,6.28
2022-08-11T08:01:44.509Z,3.35
2022-08-11T08:04:35.371Z,4.72
2022-08-11T08:07:24.110Z,4.07
2022-08-11T08:10:14.304Z,4.40
2022-08-11T08:13:02.308Z,3.53
2022-08-11T08:15:50.265Z,4.15
2022-08-11T08:18:27.033Z,3.20
2022-08-11T08:21:11.752Z,3.78
2022-08-11T08:23:42.031Z,8.45
2022-08-11T08:26:33.733Z,2.70
2022-08-11T08:29:33.755Z,3.88
2022-08-11T08:32:02.821Z,6.60
2022-08-11T08:34:32.402Z,2.72
2022-08-11T08:37:01.132Z,4.95
2022-08-11T08:39:28.495Z,5.20
2022-08-11T08:41:59.217Z,2.90
2022-08-11T08:44:38.385Z,3.40
2022-08-11T08:47:13.267Z,3.05
2022-08-11T08:49:49.255Z,2.42
2022-08-11T08:52:33.250Z,2.17
2022-08-11T08:55:07.380Z,3.03
2022-08-11T08:57:39.734Z,3.30
2022-08-11T09:00:12.702Z,4.28
2022-08-11T09:02:44.166Z,3.55
2022-08-11T09:05:16.784Z,2.33
2022-08-11T09:07:47.611Z,2.42
2022-08-11T09:10:18.861Z,2.22
2022-08-11T09:12:46.354Z,3.92
2022-08-11T09:15:15.224Z,2.67
2022-08-11T09:18:05.955Z,2.60
2022-08-11T09:20:37.020Z,3.80
2022-08-11T09:26:35.390Z,5.05
2022-08-11T09:29:04.577Z,2.67
2022-08-11T09:31:39.646Z,3.28
2022-08-11T09:34:10.236Z,3.13
2022-08-11T09:37:01.429Z,5.75
2022-08-11T09:39:49.280Z,4.05
2022-08-11T09:42:23.210Z,2.97
2022-08-11T09:44:53.290Z,7.43
2022-08-11T09:47:29.655Z,3.60
2022-08-11T09:50:01.446Z,3.72
2022-08-11T09:52:38.758Z,4.22
2022-08-11T09:55:11.390Z,3.92
2022-08-11T09:58:05.611Z,7.40
2022-08-11T10:00:37.902Z,2.10
2022-08-11T10:03:17.929Z,2.15
2022-08-11T10:06:08.345Z,2.50
2022-08-11T10:08:40.603Z,5.22
2022-08-11T10:11:13.837Z,2.63
2022-08-11T10:14:33.224Z,4.68
2022-08-11T10:16:52.964Z,3.90
2022-08-11T10:19:22.046Z,5.30
2022-08-11T10:22:11.964Z,3.13
2022-08-11T10:25:01.821Z,5.13
2022-08-11T10:27:43.154Z,3.40
2022-08-11T10:30:35.067Z,3.45
2022-08-11T10:33:37.590Z,2.70
2022-08-11T10:36:16.266Z,6.05
2022-08-11T10:38:46.893Z,2.50
2022-08-11T10:41:33.340Z,3.35
2022-08-11T10:44:04.035Z,3.85
2022-08-11T10:46:50.708Z,2.28
2022-08-11T10:49:20.416Z,2.33
2022-08-11T10:52:06.821Z,4.40
2022-08-11T10:54:54.738Z,2.38
2022-08-11T10:57:41.682Z,3.55
2022-08-11T11:00:15.095Z,3.67
2022-08-11T11:02:45.115Z,4.07
2022-08-11T11:05:33.842Z,3.08
2022-08-11T11:08:34.091Z,4.35
2022-08-11T11:11:04.038Z,3.70
2022-08-11T11:13:55.017Z,3.72
2022-08-11T11:16:42.078Z,4.93
2022-08-11T11:19:11.621Z,3.20
2022-08-11T11:21:43.139Z,5.82
2022-08-11T11:24:45.891Z,3.63
2022-08-11T11:27:46.620Z,2.50
2022-08-11T11:30:17.167Z,5.13
2022-08-11T11:33:13.205Z,4.38
2022-08-11T11:35:58.906Z,2.45
2022-08-11T11:38:27.197Z,2.35
2022-08-11T11:41:13.609Z,2.60
2022-08-11T11:43:42.008Z,3.45
2022-08-11T11:46:10.634Z,5.18
2022-08-11T11:48:38.031Z,2.70
2022-08-11T11:51:05.814Z,4.90
2022-08-11T11:53:34.855Z,3.00
2022-08-11T11:56:03.463Z,3.35
2022-08-11T11:58:49.317Z,2.42
2022-08-11T12:01:16.560Z,3.22
2022-08-11T12:03:50.792Z,4.80
2022-08-11T12:06:22.007Z,4.15
2022-08-11T12:08:53.015Z,3.47
2022-08-11T12:11:43.554Z,2.67
2022-08-11T12:14:12.500Z,4.40
2022-08-11T12:16:41.841Z,2.85
2022-08-11T12:19:24.476Z,4.35
2022-08-11T12:22:14.305Z,2.45
2022-08-11T12:25:01.112Z,3.08
2022-08-11T12:27:30.698Z,3.58
2022-08-11T12:30:02.900Z,3.25
2022-08-11T12:32:32.561Z,4.07
2022-08-11T12:35:01.396Z,3.50
2022-08-11T12:37:45.665Z,3.78
2022-08-11T12:41:11.743Z,2.45
2022-08-11T12:43:57.225Z,3.20
2022-08-11T12:46:32.169Z,6.38
2022-08-11T12:49:28.397Z,7.55
2022-08-11T12:52:00.700Z,3.47
2022-08-11T12:54:49.656Z,6.15
2022-08-11T12:57:58.162Z,5.30
2022-08-11T13:00:46.046Z,3.78
2022-08-11T13:03:33.054Z,5.00
2022-08-11T13:06:05.490Z,3.17
2022-08-11T13:08:37.678Z,2.35
2022-08-11T13:11:25.582Z,2.03
2022-08-11T13:14:15.204Z,2.42
2022-08-11T13:17:04.574Z,2.58
2022-08-11T13:19:34.618Z,4.50
2022-08-11T13:22:07.197Z,5.47
2022-08-11T13:24:39.673Z,3.85
2022-08-11T13:27:07.461Z,2.70
2022-08-11T13:29:36.081Z,2.47
2022-08-11T13:32:03.997Z,3.90
2022-08-11T13:34:32.524Z,2.90
2022-08-11T13:37:05.190Z,2.45
2022-08-11T13:39:35.279Z,6.45
2022-08-11T13:42:05.390Z,5.55
2022-08-11T13:44:38.030Z,3.30
2022-08-11T13:47:08.660Z,5.25
2022-08-11T13:49:40.288Z,2.08
2022-08-11T13:52:13.573Z,6.07
2022-08-11T13:54:42.572Z,2.92
2022-08-11T13:58:06.294Z,8.15
2022-08-11T14:00:13.238Z,2.40
2022-08-11T14:02:53.861Z,2.08
2022-08-11T14:05:29.338Z,3.63
2022-08-11T14:08:09.187Z,2.72
2022-08-11T14:12:21.883Z,2.42
2022-08-11T14:14:13.666Z,2.53
2022-08-11T14:16:44.875Z,3.78
2022-08-11T14:19:15.094Z,3.53
2022-08-11T14:22:07.267Z,3.28
2022-08-11T14:24:41.744Z,3.25
2022-08-11T14:28:30.021Z,2.40
2022-08-11T14:30:00.761Z,4.13
2022-08-11T14:32:28.118Z,2.83
2022-08-11T14:34:56.446Z,3.20
2022-08-11T14:37:26.829Z,3.45
2022-08-11T14:40:03.759Z,5.15
2022-08-11T14:42:57.720Z,3.88
2022-08-11T14:45:54.149Z,2.42
2022-08-11T14:48:23.454Z,5.32
2022-08-11T14:50:51.616Z,4.03
2022-08-11T14:53:23.076Z,5.05
2022-08-11T14:56:10.452Z,2.90
2022-08-11T14:58:39.969Z,4.15
2022-08-11T15:01:27.266Z,7.20
2022-08-11T15:04:33.959Z,4.85
2022-08-11T15:06:43.535Z,2.88
2022-08-11T15:09:10.565Z,3.20
2022-08-11T15:11:57.091Z,3.90
2022-08-11T15:14:43.989Z,2.35
2022-08-11T15:17:12.959Z,2.90
2022-08-11T15:20:02.562Z,2.88
2022-08-11T15:22:48.269Z,2.35
2022-08-11T15:25:15.974Z,2.50
2022-08-11T15:28:04.428Z,3.63
2022-08-11T15:30:50.875Z,5.32
2022-08-11T15:33:40.336Z,3.75
2022-08-11T15:36:29.426Z,3.95
2022-08-11T15:39:19.489Z,2.88
2022-08-11T15:42:15.859Z,2.17
2022-08-11T15:45:08.273Z,2.58
2022-08-11T15:47:57.507Z,2.47
2022-08-11T15:50:38.765Z,6.07
2022-08-11T15:53:16.486Z,3.33
2022-08-11T15:55:45.080Z,2.58
2022-08-11T15:58:32.525Z,2.33
2022-08-11T16:01:21.041Z,2.33
2022-08-11T16:04:16.922Z,3.53
2022-08-11T16:07:11.542Z,4.55
2022-08-11T16:09:54.105Z,4.95
2022-08-11T16:12:32.714Z,3.58
2022-08-11T16:15:27.677Z,2.35
2022-08-11T16:18:03.249Z,3.92
2022-08-11T16:20:33.301Z,3.17
2022-08-11T16:23:05.676Z,4.10
2022-08-11T16:27:02.910Z,2.63
2022-08-11T16:28:25.295Z,4.57
2022-08-11T16:30:55.451Z,6.35
2022-08-11T16:33:50.040Z,7.55
2022-08-11T16:36:34.415Z,5.00
2022-08-11T16:39:05.649Z,5.03
2022-08-11T16:41:55.054Z,3.58
2022-08-11T16:44:43.753Z,3.95
2022-08-11T16:47:16.440Z,3.67
2022-08-11T16:49:54.244Z,2.97
2022-08-11T16:52:23.748Z,4.03
2022-08-11T16:54:52.841Z,4.43
2022-08-11T16:57:45.007Z,5.82
2022-08-11T17:00:16.508Z,4.75
2022-08-11T17:03:15.478Z,4.68
2022-08-11T17:06:09.910Z,6.72
2022-08-11T17:09:04.941Z,2.97
2022-08-11T17:12:11.767Z,4.00
2022-08-11T17:14:48.320Z,3.05
2022-08-11T17:17:23.876Z,3.40
2022-08-11T17:20:38.343Z,5.63
2022-08-11T17:23:04.283Z,3.28
2022-08-11T17:25:59.908Z,3.38
2022-08-11T17:28:24.509Z,7.70
2022-08-11T17:31:21.885Z,4.07
2022-08-11T17:34:10.285Z,3.20
2022-08-11T17:36:44.577Z,4.72
2022-08-11T17:39:14.365Z,5.80
2022-08-11T17:42:02.571Z,3.47
2022-08-11T17:44:50.730Z,3.90
2022-08-11T17:47:38.671Z,2.70
2022-08-11T17:50:15.937Z,5.03
2022-08-11T17:53:06.052Z,4.35
2022-08-11T17:55:55.898Z,3.45
2022-08-11T17:58:45.336Z,7.53
2022-08-11T18:01:14.352Z,3.10
2022-08-11T18:03:56.387Z,4.65
2022-08-11T18:06:34.460Z,2.88
2022-08-11T18:09:27.935Z,4.85
2022-08-11T18:12:15.026Z,5.28
2022-08-11T18:15:10.039Z,3.80
2022-08-11T18:17:56.673Z,3.22
2022-08-11T18:20:43.736Z,4.45
2022-08-11T18:23:46.041Z,3.72
2022-08-11T18:26:37.911Z,2.60
2022-08-11T18:29:27.178Z,2.75
2022-08-11T18:32:21.823Z,3.53
2022-08-11T18:35:12.297Z,2.65
2022-08-11T18:38:05.703Z,2.88
2022-08-11T18:40:54.503Z,3.08
2022-08-11T18:43:44.045Z,6.57
2022-08-11T18:46:36.816Z,9.63
2022-08-11T18:50:02.306Z,3.65
2022-08-11T18:52:38.318Z,3.75
2022-08-11T18:55:34.893Z,3.17
2022-08-11T18:58:28.814Z,3.40
2022-08-11T19:01:19.758Z,5.43
2022-08-11T19:04:11.193Z,3.22
2022-08-11T19:07:06.302Z,3.38
2022-08-11T19:09:58.229Z,2.47
2022-08-11T19:12:48.302Z,2.67
2022-08-11T19:15:36.342Z,4.88
2022-08-11T19:18:23.138Z,6.60
2022-08-11T19:21:11.859Z,5.47
2022-08-11T19:24:08.785Z,4.15
2022-08-11T19:26:56.384Z,5.70
2022-08-11T19:30:12.036Z,5.65
2022-08-11T19:32:51.786Z,5.65
2022-08-11T19:35:39.161Z,8.18
2022-08-11T19:38:26.700Z,6.68
2022-08-11T19:41:14.119Z,8.05
2022-08-11T19:44:05.545Z,6.25
2022-08-11T19:46:54.481Z,8.53
2022-08-11T19:49:42.355Z,7.75
2022-08-11T19:52:28.694Z,6.95
2022-08-11T19:55:15.765Z,8.23
2022-08-11T19:58:02.559Z,9.45
2022-08-11T20:00:48.896Z,9.50
2022-08-11T20:03:35.393Z,8.57
2022-08-11T20:06:25.667Z,6.60
2022-08-11T20:09:18.480Z,5.23
2022-08-11T20:12:09.098Z,5.80
2022-08-11T20:14:59.262Z,5.23
2022-08-11T20:17:48.081Z,6.20
2022-08-11T20:20:36.125Z,7.77
2022-08-11T20:23:24.920Z,7.40
2022-08-11T20:26:30.307Z,8.10
2022-08-11T20:29:19.469Z,7.83
2022-08-11T20:32:09.771Z,6.47
2022-08-11T20:34:58.497Z,6.03
2022-08-11T20:37:50.853Z,7.10
2022-08-11T20:40:44.017Z,6.47
2022-08-11T20:44:08.175Z,5.03
2022-08-11T20:46:44.287Z,6.30
2022-08-11T20:49:40.959Z,7.80
2022-08-11T20:52:37.700Z,6.87
2022-08-11T20:55:51.634Z,6.37
2022-08-11T20:59:04.059Z,5.77
2022-08-11T21:01:44.105Z,5.67
2022-08-11T21:04:30.530Z,6.53
2022-08-11T21:07:26.132Z,7.07
2022-08-11T21:10:23.486Z,7.60
2022-08-11T21:13:25.852Z,6.73
2022-08-11T21:16:27.320Z,5.33
2022-08-11T21:20:00.646Z,6.37
2022-08-11T21:23:10.153Z,4.40
2022-08-11T21:26:09.662Z,4.53
2022-08-11T21:28:59.517Z,5.57
2022-08-11T21:31:50.131Z,6.30
2022-08-11T21:34:40.159Z,6.53
2022-08-11T21:37:27.790Z,7.37
2022-08-11T21:40:17.398Z,6.97
2022-08-11T21:43:06.958Z,6.10
2022-08-11T21:45:56.656Z,6.07
2022-08-11T21:48:45.418Z,5.57
2022-08-11T21:51:31.224Z,6.30
2022-08-11T21:54:18.894Z,5.80
2022-08-11T21:57:09.338Z,6.60
2022-08-11T22:00:10.719Z,4.30
2022-08-11T22:03:03.830Z,5.60
2022-08-11T22:05:52.388Z,5.00
2022-08-11T22:08:38.245Z,5.57
2022-08-11T22:11:32.185Z,4.77
2022-08-11T22:14:22.616Z,4.87
2022-08-11T22:17:11.604Z,4.83
2022-08-11T22:20:01.097Z,5.23
2022-08-11T22:22:53.494Z,5.83
2022-08-11T22:25:53.779Z,11.20
2022-08-11T22:28:43.800Z,7.17
2022-08-11T22:31:33.284Z,9.73
2022-08-11T22:34:20.368Z,9.43
2022-08-11T22:37:08.796Z,7.90
2022-08-11T22:40:02.266Z,7.43
2022-08-11T22:42:51.464Z,6.23
2022-08-11T22:45:38.924Z,6.03
2022-08-11T22:48:26.881Z,6.90
2022-08-11T22:51:13.961Z,7.43
2022-08-11T22:54:01.646Z,6.80
2022-08-11T22:56:50.127Z,8.33
2022-08-11T22:59:38.016Z,7.27
2022-08-11T23:02:25.919Z,7.73
2022-08-11T23:05:13.091Z,8.50
2022-08-11T23:08:01.122Z,8.60
2022-08-11T23:10:47.319Z,7.93
2022-08-11T23:13:34.098Z,7.57
2022-08-11T23:16:20.640Z,5.83
2022-08-11T23:19:07.780Z,6.30
2022-08-11T23:21:54.591Z,6.00
2022-08-11T23:24:46.252Z,5.20
2022-08-11T23:27:33.875Z,6.90
2022-08-11T23:30:20.903Z,6.47
2022-08-11T23:33:18.407Z,8.57
2022-08-11T23:36:09.244Z,4.73
2022-08-11T23:38:55.632Z,5.27
2022-08-11T23:41:41.457Z,5.30
2022-08-11T23:44:28.227Z,5.90
2022-08-11T23:47:18.513Z,6.53
2022-08-11T23:50:07.239Z,6.00
2022-08-11T23:52:54.026Z,6.20
2022-08-11T23:55:40.443Z,7.00
2022-08-11T23:58:27.115Z,8.60
